American Progress — WDI4961 — position and weather

sailwx.info

Track history (hours):
 
Tides and Currents Weather Stations Pressure Air Temp Water Temp Dewpoint Dewpoint Depression Visibility Wind Speed Wind Dir Waves Ship Positions

American Progress

Owner: American Commercial Lines LLC, Jeffersonville, IN. More information available from US FCC via Universal Licensing System and Coast Guard Vessel Documentation Center.

Last reported at 2018-Jun-23 22:45 UTC. Time now 2018-Jun-24 09:15 UTC.
Position N 29°51' W 091°55'.

Length 23 m; draft 2.9 m.

Type: Towing. MMSI: 367703790.

Date/timePositionNaut miles runAvg speedWind from/ knotsBaromVisibWave heightAir tempDewpointWater temp
2018-Jun-23 22:45N 29°51' W 091°55'1 5.2
2018-Jun-23 22:28N 29°51' W 091°56'2 4.9
2018-Jun-23 22:00N 29°50' W 091°59'3 5.1
2018-Jun-23 21:30N 29°49' W 092°02'2 4.9
2018-Jun-23 21:00N 29°48' W 092°04'2 4.7
2018-Jun-23 20:30N 29°48' W 092°07'3 5.0
2018-Jun-23 20:00N 29°47' W 092°10'2 4.6
2018-Jun-23 19:30N 29°47' W 092°12'1 1.1
2018-Jun-23 19:00N 29°47' W 092°13'2 3.7
2018-Jun-23 18:30N 29°48' W 092°15'2 4.1
2018-Jun-23 18:00N 29°49' W 092°17'2 4.5
2018-Jun-23 17:30N 29°50' W 092°19'2 4.5
2018-Jun-23 17:00N 29°51' W 092°21'3 4.2
2018-Jun-23 16:21N 29°53' W 092°23'2 4.3
2018-Jun-23 15:52N 29°53' W 092°26'31 4.5
2018-Jun-23 09:00N 29°56' W 093°01'2 4.4
2018-Jun-23 08:29N 29°56' W 093°04'2 3.9
2018-Jun-23 08:00N 29°56' W 093°06'2 3.8
2018-Jun-23 07:30N 29°56' W 093°08'2 3.8
2018-Jun-23 07:00N 29°57' W 093°10'2 3.7
2018-Jun-23 06:30N 29°58' W 093°12'2 3.8
2018-Jun-23 06:00N 29°60' W 093°13'2 3.8
2018-Jun-23 05:30N 30°01' W 093°14'2 3.3
2018-Jun-23 05:00N 30°02' W 093°16'2 3.4
2018-Jun-23 04:30N 30°04' W 093°16'2 3.3
2018-Jun-23 04:00N 30°05' W 093°18'1 1.3
2018-Jun-23 03:30N 30°06' W 093°18'0 0.8
2018-Jun-23 03:00N 30°06' W 093°18'0 0.0
2018-Jun-23 02:30N 30°06' W 093°18'0 0.0
2018-Jun-23 02:00N 30°06' W 093°18'0 0.1
2018-Jun-23 01:30N 30°06' W 093°18'0 0.0
2018-Jun-23 01:00N 30°06' W 093°18'0 0.0
2018-Jun-23 00:30N 30°06' W 093°18'0 0.0
2018-Jun-23 00:00N 30°06' W 093°18'0 0.1
2018-Jun-22 23:30N 30°06' W 093°18'0 0.1
2018-Jun-22 23:00N 30°06' W 093°18'0 0.0
2018-Jun-22 22:30N 30°06' W 093°18'0 0.1
2018-Jun-22 22:00N 30°06' W 093°18'0 0.0
2018-Jun-22 21:30N 30°06' W 093°18'0 0.1
2018-Jun-22 21:00N 30°06' W 093°18'0 0.0
2018-Jun-22 20:28N 30°06' W 093°18'0 0.1
2018-Jun-22 19:55N 30°06' W 093°18'0 0.0
2018-Jun-22 19:30N 30°06' W 093°18'0 0.0
2018-Jun-22 19:00N 30°06' W 093°18'0 0.0
2018-Jun-22 18:30N 30°06' W 093°18'0 0.0
2018-Jun-22 18:00N 30°06' W 093°18'0 0.0
2018-Jun-22 17:30N 30°06' W 093°18'0 0.0
2018-Jun-22 17:00N 30°06' W 093°18'0 0.0
2018-Jun-22 16:30N 30°06' W 093°18'0 0.0
2018-Jun-22 16:00N 30°06' W 093°18'0 0.1
2018-Jun-22 15:30N 30°06' W 093°18'0 0.0
2018-Jun-22 15:00N 30°06' W 093°18'0 0.0
2018-Jun-22 14:30N 30°06' W 093°18'0 0.1
2018-Jun-22 14:00N 30°06' W 093°18'0 0.0
2018-Jun-22 13:29N 30°06' W 093°18'0 0.0
2018-Jun-22 12:59N 30°06' W 093°18'0 0.0
2018-Jun-22 12:30N 30°06' W 093°18'0 0.0
2018-Jun-22 12:00N 30°06' W 093°18'0 0.0
2018-Jun-22 11:30N 30°06' W 093°18'0 0.0
2018-Jun-22 11:00N 30°06' W 093°18'0 0.0
2018-Jun-22 10:30N 30°06' W 093°18'0 0.0
2018-Jun-22 10:00N 30°06' W 093°18'0 0.1
2018-Jun-22 09:29N 30°06' W 093°18'0 0.0
2018-Jun-22 09:00N 30°06' W 093°18'0 0.0
2018-Jun-22 08:30N 30°06' W 093°18'0 0.0
2018-Jun-22 08:00N 30°06' W 093°18'0 0.0
2018-Jun-22 07:30N 30°06' W 093°18'0 0.0
2018-Jun-22 07:00N 30°06' W 093°18'0 0.0
2018-Jun-22 06:30N 30°06' W 093°18'0 0.0
2018-Jun-22 06:00N 30°06' W 093°18'0 0.0
2018-Jun-22 05:30N 30°06' W 093°18'0 0.1
2018-Jun-22 05:00N 30°06' W 093°18'0 0.7
2018-Jun-22 04:30N 30°06' W 093°19'3 5.1
2018-Jun-22 04:00N 30°04' W 093°21'2 4.1
2018-Jun-22 03:30N 30°04' W 093°23'3 5.1
2018-Jun-22 03:00N 30°04' W 093°26'3 5.6
2018-Jun-22 02:30N 30°04' W 093°29'3 5.5
2018-Jun-22 02:00N 30°04' W 093°32'3 5.3
2018-Jun-22 01:30N 30°04' W 093°35'3 5.1
2018-Jun-22 01:00N 30°04' W 093°38'2 5.1
2018-Jun-22 00:30N 30°04' W 093°41'2 4.8
2018-Jun-22 00:00N 30°03' W 093°44'2 4.8
2018-Jun-21 23:30N 30°01' W 093°46'2 4.8
2018-Jun-21 23:00N 29°59' W 093°48'3 5.5
2018-Jun-21 22:30N 29°58' W 093°51'2 3.5
2018-Jun-21 22:00N 29°57' W 093°52'1 1.1
2018-Jun-21 21:30N 29°58' W 093°52'0 0.0
2018-Jun-21 20:59N 29°58' W 093°52'1 1.1
2018-Jun-21 20:30N 29°58' W 093°51'0 0.1
2018-Jun-21 20:00N 29°58' W 093°51'0 0.0
2018-Jun-21 19:30N 29°58' W 093°51'0 0.0
2018-Jun-21 19:00N 29°58' W 093°51'0 0.0
2018-Jun-21 18:30N 29°58' W 093°51'0 0.0
2018-Jun-21 18:00N 29°58' W 093°51'0 0.0
2018-Jun-21 17:30N 29°58' W 093°51'0 0.0
2018-Jun-21 17:00N 29°58' W 093°51'0 0.0
2018-Jun-21 16:30N 29°58' W 093°51'0 0.6
2018-Jun-21 16:00N 29°58' W 093°52'0 0.0
2018-Jun-21 15:30N 29°58' W 093°52'0 0.0
2018-Jun-21 15:00N 29°58' W 093°52'0 0.0
2018-Jun-21 14:30N 29°58' W 093°52'0 0.0
2018-Jun-21 14:00N 29°58' W 093°52'0 0.0
2018-Jun-21 13:30N 29°58' W 093°52'0 0.0
2018-Jun-21 13:00N 29°58' W 093°52'1 1.3
2018-Jun-21 12:30N 29°58' W 093°52'0 0.5
2018-Jun-21 12:00N 29°57' W 093°52'1 2.1
2018-Jun-21 11:30N 29°56' W 093°52'3 6.1
2018-Jun-21 11:00N 29°54' W 093°54'3 5.7
2018-Jun-21 10:30N 29°52' W 093°56'3 5.6
2018-Jun-21 10:00N 29°49' W 093°58'2 4.4
2018-Jun-21 09:30N 29°48' W 094°00'2 5.0
2018-Jun-21 09:00N 29°46' W 094°02'2 5.0
2018-Jun-21 08:30N 29°45' W 094°05'3 5.1
2018-Jun-21 08:00N 29°43' W 094°07'3 5.1
2018-Jun-21 07:30N 29°42' W 094°09'2 4.1
2018-Jun-21 07:00N 29°41' W 094°11'2 4.7
2018-Jun-21 06:30N 29°40' W 094°14'2 4.6
2018-Jun-21 06:00N 29°39' W 094°16'2 4.5
2018-Jun-21 05:30N 29°38' W 094°19'2 4.8
2018-Jun-21 05:00N 29°37' W 094°21'2 4.3
2018-Jun-21 04:30N 29°36' W 094°23'2 3.4
2018-Jun-21 04:00N 29°35' W 094°25'2 2.8
2018-Jun-21 03:26N 29°34' W 094°26'1 2.5
2018-Jun-21 03:00N 29°34' W 094°27'2 4.8
2018-Jun-21 02:30N 29°32' W 094°29'13 5.6
2018-Jun-21 00:11N 29°26' W 094°42'1 4.5
2018-Jun-20 23:56N 29°26' W 094°43'2 3.8
2018-Jun-20 23:30N 29°24' W 094°45'2 3.7
2018-Jun-20 23:00N 29°23' W 094°46'2 4.6
2018-Jun-20 22:30N 29°22' W 094°48'3 5.3
2018-Jun-20 22:00N 29°22' W 094°51'2 3.3
2018-Jun-20 21:27N 29°22' W 094°53'0 0.1
2018-Jun-20 20:45N 29°22' W 094°53'0 0.1
2018-Jun-20 16:54N 29°23' W 094°54'0 0.0
2018-Jun-20 16:23N 29°23' W 094°54'0 0.0
2018-Jun-20 16:00N 29°23' W 094°54'0 0.0
2018-Jun-20 15:11N 29°23' W 094°54'0 0.0
2018-Jun-20 14:55N 29°23' W 094°54'0 0.0
2018-Jun-20 13:49N 29°23' W 094°54'0 0.0
2018-Jun-20 13:28N 29°23' W 094°54'0 0.0
2018-Jun-20 13:00N 29°23' W 094°54'0 0.0
2018-Jun-20 12:30N 29°23' W 094°54'0 0.0
2018-Jun-20 11:58N 29°23' W 094°54'0 0.0
2018-Jun-20 01:28N 29°23' W 094°54'0 0.0
2018-Jun-20 01:00N 29°23' W 094°54'0 0.0
2018-Jun-19 21:33N 29°23' W 094°54'0 0.0
2018-Jun-19 19:15N 29°23' W 094°54'0 0.0
2018-Jun-19 18:46N 29°23' W 094°54'0 0.0
2018-Jun-19 18:30N 29°23' W 094°54'3 5.2
2018-Jun-19 18:00N 29°22' W 094°51'3 5.7
2018-Jun-19 17:30N 29°22' W 094°47'5 0.2
2018-Jun-18 14:50N 29°26' W 094°43'0 0.0
2018-Jun-18 09:24N 29°26' W 094°43'0 0.0
2018-Jun-18 06:48N 29°26' W 094°43'18 0.6
2018-Jun-16 23:00N 29°34' W 094°25'2 4.5
2018-Jun-16 22:30N 29°36' W 094°23'2 3.2
2018-Jun-16 22:01N 29°36' W 094°22'0 0.2
2018-Jun-16 21:30N 29°36' W 094°22'1 1.7
2018-Jun-16 21:00N 29°37' W 094°21'4 7.3
2018-Jun-16 20:31N 29°39' W 094°17'4 7.3
2018-Jun-16 20:00N 29°40' W 094°13'4 7.4
2018-Jun-16 19:30N 29°41' W 094°09'2 4.9
2018-Jun-16 19:01N 29°43' W 094°07'4 7.4
2018-Jun-16 18:31N 29°45' W 094°04'3 6.6
2018-Jun-16 18:00N 29°47' W 094°01'3 6.6
2018-Jun-16 17:31N 29°49' W 093°58'4 7.1
2018-Jun-16 17:00N 29°52' W 093°56'4 7.7
2018-Jun-16 16:30N 29°55' W 093°53'4 7.1
2018-Jun-16 16:01N 29°58' W 093°51'4 7.8
2018-Jun-16 15:30N 29°60' W 093°46'4 7.3
2018-Jun-16 15:00N 30°03' W 093°44'3 6.3
2018-Jun-16 14:30N 30°04' W 093°40'3 6.1
2018-Jun-16 14:00N 30°04' W 093°37'3 6.2
2018-Jun-16 13:30N 30°04' W 093°33'3 6.3
2018-Jun-16 13:01N 30°04' W 093°30'3 6.4
2018-Jun-16 12:30N 30°04' W 093°26'2 4.9
2018-Jun-16 12:00N 30°04' W 093°23'2 4.0
2018-Jun-16 11:30N 30°04' W 093°21'2 3.4
2018-Jun-16 11:00N 30°05' W 093°20'2 3.7
2018-Jun-16 10:31N 30°05' W 093°18'1 1.3
2018-Jun-16 10:01N 30°05' W 093°17'1 2.1
2018-Jun-16 09:30N 30°04' W 093°16'0 0.7
2018-Jun-16 09:00N 30°04' W 093°16'0 0.0
2018-Jun-16 08:30N 30°04' W 093°16'0 0.0
2018-Jun-16 08:00N 30°04' W 093°16'0 0.0
2018-Jun-16 07:30N 30°04' W 093°16'0 0.0
2018-Jun-16 07:00N 30°04' W 093°16'0 0.0
2018-Jun-16 06:30N 30°04' W 093°16'0 0.0
2018-Jun-16 06:01N 30°04' W 093°16'0 0.0
2018-Jun-16 05:31N 30°04' W 093°16'0 0.0
2018-Jun-16 05:00N 30°04' W 093°16'0 0.0
2018-Jun-16 04:30N 30°04' W 093°16'0 0.6
2018-Jun-16 04:00N 30°03' W 093°16'1 1.8
2018-Jun-16 03:30N 30°03' W 093°16'0 0.0
2018-Jun-16 03:01N 30°03' W 093°16'0 0.0
2018-Jun-16 02:30N 30°03' W 093°16'0 0.0
2018-Jun-16 02:00N 30°03' W 093°16'0 0.7
2018-Jun-16 01:29N 30°02' W 093°15'1 2.7
2018-Jun-16 01:00N 30°02' W 093°14'2 3.8
2018-Jun-16 00:30N 29°60' W 093°13'2 3.8
2018-Jun-16 00:00N 29°58' W 093°12'1 2.8
2018-Jun-15 23:30N 29°57' W 093°11'2 4.1
2018-Jun-15 23:01N 29°56' W 093°09'1 1.8
2018-Jun-15 22:30N 29°56' W 093°08'0 0.0
2018-Jun-15 22:00N 29°56' W 093°08'0 0.0
2018-Jun-15 21:31N 29°56' W 093°08'0 0.0
2018-Jun-15 21:00N 29°56' W 093°08'0 0.0
2018-Jun-15 20:31N 29°56' W 093°08'0 0.0
2018-Jun-15 20:01N 29°56' W 093°08'0 0.0
2018-Jun-15 19:30N 29°56' W 093°08'0 0.0
2018-Jun-15 19:00N 29°56' W 093°08'0 0.0
2018-Jun-15 18:31N 29°56' W 093°08'0 0.0
2018-Jun-15 18:01N 29°56' W 093°08'0 0.0
2018-Jun-15 17:30N 29°56' W 093°08'0 0.0
2018-Jun-15 17:01N 29°56' W 093°08'0 0.0
2018-Jun-15 16:31N 29°56' W 093°08'0 0.0
2018-Jun-15 16:00N 29°56' W 093°08'0 0.0
2018-Jun-15 15:30N 29°56' W 093°08'0 0.0
2018-Jun-15 15:01N 29°56' W 093°08'0 0.0
2018-Jun-15 14:30N 29°56' W 093°08'0 0.0
2018-Jun-15 14:00N 29°56' W 093°08'0 0.0
2018-Jun-15 13:30N 29°56' W 093°08'0 0.0
2018-Jun-15 13:00N 29°56' W 093°08'0 0.0
2018-Jun-15 12:30N 29°56' W 093°08'0 0.0
2018-Jun-15 12:01N 29°56' W 093°08'0 0.0
2018-Jun-15 11:30N 29°56' W 093°08'0 0.0
2018-Jun-15 11:00N 29°56' W 093°08'0 0.0
2018-Jun-15 10:31N 29°56' W 093°08'0 0.0
2018-Jun-15 10:01N 29°56' W 093°08'0 0.0
2018-Jun-15 09:21N 29°56' W 093°08'0 0.0
2018-Jun-15 09:01N 29°56' W 093°08'0 0.0
2018-Jun-15 08:21N 29°56' W 093°08'0 0.0
2018-Jun-15 08:00N 29°56' W 093°08'0 0.0
2018-Jun-15 07:30N 29°56' W 093°08'0 0.0
2018-Jun-15 07:00N 29°56' W 093°08'0 0.0
2018-Jun-15 06:30N 29°56' W 093°08'0 0.0
2018-Jun-15 06:00N 29°56' W 093°08'0 0.0
2018-Jun-15 05:30N 29°56' W 093°08'0 0.0
2018-Jun-15 05:01N 29°56' W 093°08'0 0.0
2018-Jun-15 04:30N 29°56' W 093°08'0 0.3
2018-Jun-15 04:01N 29°56' W 093°08'0 0.0
2018-Jun-15 03:30N 29°56' W 093°08'0 0.0
2018-Jun-15 03:01N 29°56' W 093°08'0 0.0
2018-Jun-15 02:30N 29°56' W 093°08'0 0.0
2018-Jun-15 02:01N 29°56' W 093°08'0 0.0
2018-Jun-15 01:30N 29°56' W 093°08'0 0.0
2018-Jun-15 01:00N 29°56' W 093°08'0 0.0
2018-Jun-15 00:31N 29°56' W 093°08'0 0.0
2018-Jun-15 00:00N 29°56' W 093°08'0 0.0
2018-Jun-14 23:30N 29°56' W 093°08'0 0.0
2018-Jun-14 23:00N 29°56' W 093°08'0 0.0
2018-Jun-14 22:30N 29°56' W 093°08'0 0.0
2018-Jun-14 22:00N 29°56' W 093°08'0 0.0
2018-Jun-14 21:30N 29°56' W 093°08'0 0.3
2018-Jun-14 21:00N 29°56' W 093°08'0 0.0
2018-Jun-14 20:29N 29°56' W 093°07'2 5.1
2018-Jun-14 20:01N 29°56' W 093°05'34 5.5
2018-Jun-14 13:45N 29°53' W 092°25'3 5.3
2018-Jun-14 13:17N 29°52' W 092°23'2 5.6
2018-Jun-14 13:00N 29°51' W 092°22'3 6.0
2018-Jun-14 12:30N 29°50' W 092°18'3 5.6
2018-Jun-14 12:01N 29°48' W 092°16'3 6.3
2018-Jun-14 11:30N 29°47' W 092°13'1 2.2
2018-Jun-14 11:01N 29°47' W 092°11'1 1.5
2018-Jun-14 10:30N 29°47' W 092°11'3 6.1
2018-Jun-14 10:00N 29°47' W 092°07'3 6.3
2018-Jun-14 09:30N 29°48' W 092°04'3 6.2
2018-Jun-14 09:00N 29°50' W 092°00'3 5.9
2018-Jun-14 08:30N 29°50' W 091°57'  
Track history (hours):
 
Tides and Currents Weather Stations Pressure Air Temp Water Temp Dewpoint Dewpoint Depression Visibility Wind Speed Wind Dir Waves Ship Positions

American Progress

Owner: American Commercial Lines LLC, Jeffersonville, IN. More information available from US FCC via Universal Licensing System and Coast Guard Vessel Documentation Center.

Last reported at 2018-Jun-23 22:45 UTC. Time now 2018-Jun-24 09:15 UTC.
Position N 29°51' W 091°55'.

Length 23 m; draft 2.9 m.

Type: Towing. MMSI: 367703790.

Date/timePositionNaut miles runAvg speedWind from/ knotsBaromVisibWave heightAir tempDewpointWater temp
2018-Jun-23 22:45N 29°51' W 091°55'1 5.2
2018-Jun-23 22:28N 29°51' W 091°56'2 4.9
2018-Jun-23 22:00N 29°50' W 091°59'3 5.1
2018-Jun-23 21:30N 29°49' W 092°02'2 4.9
2018-Jun-23 21:00N 29°48' W 092°04'2 4.7
2018-Jun-23 20:30N 29°48' W 092°07'3 5.0
2018-Jun-23 20:00N 29°47' W 092°10'2 4.6
2018-Jun-23 19:30N 29°47' W 092°12'1 1.1
2018-Jun-23 19:00N 29°47' W 092°13'2 3.7
2018-Jun-23 18:30N 29°48' W 092°15'2 4.1
2018-Jun-23 18:00N 29°49' W 092°17'2 4.5
2018-Jun-23 17:30N 29°50' W 092°19'2 4.5
2018-Jun-23 17:00N 29°51' W 092°21'3 4.2
2018-Jun-23 16:21N 29°53' W 092°23'2 4.3
2018-Jun-23 15:52N 29°53' W 092°26'31 4.5
2018-Jun-23 09:00N 29°56' W 093°01'2 4.4
2018-Jun-23 08:29N 29°56' W 093°04'2 3.9
2018-Jun-23 08:00N 29°56' W 093°06'2 3.8
2018-Jun-23 07:30N 29°56' W 093°08'2 3.8
2018-Jun-23 07:00N 29°57' W 093°10'2 3.7
2018-Jun-23 06:30N 29°58' W 093°12'2 3.8
2018-Jun-23 06:00N 29°60' W 093°13'2 3.8
2018-Jun-23 05:30N 30°01' W 093°14'2 3.3
2018-Jun-23 05:00N 30°02' W 093°16'2 3.4
2018-Jun-23 04:30N 30°04' W 093°16'2 3.3
2018-Jun-23 04:00N 30°05' W 093°18'1 1.3
2018-Jun-23 03:30N 30°06' W 093°18'0 0.8
2018-Jun-23 03:00N 30°06' W 093°18'0 0.0
2018-Jun-23 02:30N 30°06' W 093°18'0 0.0
2018-Jun-23 02:00N 30°06' W 093°18'0 0.1
2018-Jun-23 01:30N 30°06' W 093°18'0 0.0
2018-Jun-23 01:00N 30°06' W 093°18'0 0.0
2018-Jun-23 00:30N 30°06' W 093°18'0 0.0
2018-Jun-23 00:00N 30°06' W 093°18'0 0.1
2018-Jun-22 23:30N 30°06' W 093°18'0 0.1
2018-Jun-22 23:00N 30°06' W 093°18'0 0.0
2018-Jun-22 22:30N 30°06' W 093°18'0 0.1
2018-Jun-22 22:00N 30°06' W 093°18'0 0.0
2018-Jun-22 21:30N 30°06' W 093°18'0 0.1
2018-Jun-22 21:00N 30°06' W 093°18'0 0.0
2018-Jun-22 20:28N 30°06' W 093°18'0 0.1
2018-Jun-22 19:55N 30°06' W 093°18'0 0.0
2018-Jun-22 19:30N 30°06' W 093°18'0 0.0
2018-Jun-22 19:00N 30°06' W 093°18'0 0.0
2018-Jun-22 18:30N 30°06' W 093°18'0 0.0
2018-Jun-22 18:00N 30°06' W 093°18'0 0.0
2018-Jun-22 17:30N 30°06' W 093°18'0 0.0
2018-Jun-22 17:00N 30°06' W 093°18'0 0.0
2018-Jun-22 16:30N 30°06' W 093°18'0 0.0
2018-Jun-22 16:00N 30°06' W 093°18'0 0.1
2018-Jun-22 15:30N 30°06' W 093°18'0 0.0
2018-Jun-22 15:00N 30°06' W 093°18'0 0.0
2018-Jun-22 14:30N 30°06' W 093°18'0 0.1
2018-Jun-22 14:00N 30°06' W 093°18'0 0.0
2018-Jun-22 13:29N 30°06' W 093°18'0 0.0
2018-Jun-22 12:59N 30°06' W 093°18'0 0.0
2018-Jun-22 12:30N 30°06' W 093°18'0 0.0
2018-Jun-22 12:00N 30°06' W 093°18'0 0.0
2018-Jun-22 11:30N 30°06' W 093°18'0 0.0
2018-Jun-22 11:00N 30°06' W 093°18'0 0.0
2018-Jun-22 10:30N 30°06' W 093°18'0 0.0
2018-Jun-22 10:00N 30°06' W 093°18'0 0.1
2018-Jun-22 09:29N 30°06' W 093°18'0 0.0
2018-Jun-22 09:00N 30°06' W 093°18'0 0.0
2018-Jun-22 08:30N 30°06' W 093°18'0 0.0
2018-Jun-22 08:00N 30°06' W 093°18'0 0.0
2018-Jun-22 07:30N 30°06' W 093°18'0 0.0
2018-Jun-22 07:00N 30°06' W 093°18'0 0.0
2018-Jun-22 06:30N 30°06' W 093°18'0 0.0
2018-Jun-22 06:00N 30°06' W 093°18'0 0.0
2018-Jun-22 05:30N 30°06' W 093°18'0 0.1
2018-Jun-22 05:00N 30°06' W 093°18'0 0.7
2018-Jun-22 04:30N 30°06' W 093°19'3 5.1
2018-Jun-22 04:00N 30°04' W 093°21'2 4.1
2018-Jun-22 03:30N 30°04' W 093°23'3 5.1
2018-Jun-22 03:00N 30°04' W 093°26'3 5.6
2018-Jun-22 02:30N 30°04' W 093°29'3 5.5
2018-Jun-22 02:00N 30°04' W 093°32'3 5.3
2018-Jun-22 01:30N 30°04' W 093°35'3 5.1
2018-Jun-22 01:00N 30°04' W 093°38'2 5.1
2018-Jun-22 00:30N 30°04' W 093°41'2 4.8
2018-Jun-22 00:00N 30°03' W 093°44'2 4.8
2018-Jun-21 23:30N 30°01' W 093°46'2 4.8
2018-Jun-21 23:00N 29°59' W 093°48'3 5.5
2018-Jun-21 22:30N 29°58' W 093°51'2 3.5
2018-Jun-21 22:00N 29°57' W 093°52'1 1.1
2018-Jun-21 21:30N 29°58' W 093°52'0 0.0
2018-Jun-21 20:59N 29°58' W 093°52'1 1.1
2018-Jun-21 20:30N 29°58' W 093°51'0 0.1
2018-Jun-21 20:00N 29°58' W 093°51'0 0.0
2018-Jun-21 19:30N 29°58' W 093°51'0 0.0
2018-Jun-21 19:00N 29°58' W 093°51'0 0.0
2018-Jun-21 18:30N 29°58' W 093°51'0 0.0
2018-Jun-21 18:00N 29°58' W 093°51'0 0.0
2018-Jun-21 17:30N 29°58' W 093°51'0 0.0
2018-Jun-21 17:00N 29°58' W 093°51'0 0.0
2018-Jun-21 16:30N 29°58' W 093°51'0 0.6
2018-Jun-21 16:00N 29°58' W 093°52'0 0.0
2018-Jun-21 15:30N 29°58' W 093°52'0 0.0
2018-Jun-21 15:00N 29°58' W 093°52'0 0.0
2018-Jun-21 14:30N 29°58' W 093°52'0 0.0
2018-Jun-21 14:00N 29°58' W 093°52'0 0.0
2018-Jun-21 13:30N 29°58' W 093°52'0 0.0
2018-Jun-21 13:00N 29°58' W 093°52'1 1.3
2018-Jun-21 12:30N 29°58' W 093°52'0 0.5
2018-Jun-21 12:00N 29°57' W 093°52'1 2.1
2018-Jun-21 11:30N 29°56' W 093°52'3 6.1
2018-Jun-21 11:00N 29°54' W 093°54'3 5.7
2018-Jun-21 10:30N 29°52' W 093°56'3 5.6
2018-Jun-21 10:00N 29°49' W 093°58'2 4.4
2018-Jun-21 09:30N 29°48' W 094°00'2 5.0
2018-Jun-21 09:00N 29°46' W 094°02'2 5.0
2018-Jun-21 08:30N 29°45' W 094°05'3 5.1
2018-Jun-21 08:00N 29°43' W 094°07'3 5.1
2018-Jun-21 07:30N 29°42' W 094°09'2 4.1
2018-Jun-21 07:00N 29°41' W 094°11'2 4.7
2018-Jun-21 06:30N 29°40' W 094°14'2 4.6
2018-Jun-21 06:00N 29°39' W 094°16'2 4.5
2018-Jun-21 05:30N 29°38' W 094°19'2 4.8
2018-Jun-21 05:00N 29°37' W 094°21'2 4.3
2018-Jun-21 04:30N 29°36' W 094°23'2 3.4
2018-Jun-21 04:00N 29°35' W 094°25'2 2.8
2018-Jun-21 03:26N 29°34' W 094°26'1 2.5
2018-Jun-21 03:00N 29°34' W 094°27'2 4.8
2018-Jun-21 02:30N 29°32' W 094°29'13 5.6
2018-Jun-21 00:11N 29°26' W 094°42'1 4.5
2018-Jun-20 23:56N 29°26' W 094°43'2 3.8
2018-Jun-20 23:30N 29°24' W 094°45'2 3.7
2018-Jun-20 23:00N 29°23' W 094°46'2 4.6
2018-Jun-20 22:30N 29°22' W 094°48'3 5.3
2018-Jun-20 22:00N 29°22' W 094°51'2 3.3
2018-Jun-20 21:27N 29°22' W 094°53'0 0.1
2018-Jun-20 20:45N 29°22' W 094°53'0 0.1
2018-Jun-20 16:54N 29°23' W 094°54'0 0.0
2018-Jun-20 16:23N 29°23' W 094°54'0 0.0
2018-Jun-20 16:00N 29°23' W 094°54'0 0.0
2018-Jun-20 15:11N 29°23' W 094°54'0 0.0
2018-Jun-20 14:55N 29°23' W 094°54'0 0.0
2018-Jun-20 13:49N 29°23' W 094°54'0 0.0
2018-Jun-20 13:28N 29°23' W 094°54'0 0.0
2018-Jun-20 13:00N 29°23' W 094°54'0 0.0
2018-Jun-20 12:30N 29°23' W 094°54'0 0.0
2018-Jun-20 11:58N 29°23' W 094°54'0 0.0
2018-Jun-20 01:28N 29°23' W 094°54'0 0.0
2018-Jun-20 01:00N 29°23' W 094°54'0 0.0
2018-Jun-19 21:33N 29°23' W 094°54'0 0.0
2018-Jun-19 19:15N 29°23' W 094°54'0 0.0
2018-Jun-19 18:46N 29°23' W 094°54'0 0.0
2018-Jun-19 18:30N 29°23' W 094°54'3 5.2
2018-Jun-19 18:00N 29°22' W 094°51'3 5.7
2018-Jun-19 17:30N 29°22' W 094°47'5 0.2
2018-Jun-18 14:50N 29°26' W 094°43'0 0.0
2018-Jun-18 09:24N 29°26' W 094°43'0 0.0
2018-Jun-18 06:48N 29°26' W 094°43'18 0.6
2018-Jun-16 23:00N 29°34' W 094°25'2 4.5
2018-Jun-16 22:30N 29°36' W 094°23'2 3.2
2018-Jun-16 22:01N 29°36' W 094°22'0 0.2
2018-Jun-16 21:30N 29°36' W 094°22'1 1.7
2018-Jun-16 21:00N 29°37' W 094°21'4 7.3
2018-Jun-16 20:31N 29°39' W 094°17'4 7.3
2018-Jun-16 20:00N 29°40' W 094°13'4 7.4
2018-Jun-16 19:30N 29°41' W 094°09'2 4.9
2018-Jun-16 19:01N 29°43' W 094°07'4 7.4
2018-Jun-16 18:31N 29°45' W 094°04'3 6.6
2018-Jun-16 18:00N 29°47' W 094°01'3 6.6
2018-Jun-16 17:31N 29°49' W 093°58'4 7.1
2018-Jun-16 17:00N 29°52' W 093°56'4 7.7
2018-Jun-16 16:30N 29°55' W 093°53'4 7.1
2018-Jun-16 16:01N 29°58' W 093°51'4 7.8
2018-Jun-16 15:30N 29°60' W 093°46'4 7.3
2018-Jun-16 15:00N 30°03' W 093°44'3 6.3
2018-Jun-16 14:30N 30°04' W 093°40'3 6.1
2018-Jun-16 14:00N 30°04' W 093°37'3 6.2
2018-Jun-16 13:30N 30°04' W 093°33'3 6.3
2018-Jun-16 13:01N 30°04' W 093°30'3 6.4
2018-Jun-16 12:30N 30°04' W 093°26'2 4.9
2018-Jun-16 12:00N 30°04' W 093°23'2 4.0
2018-Jun-16 11:30N 30°04' W 093°21'2 3.4
2018-Jun-16 11:00N 30°05' W 093°20'2 3.7
2018-Jun-16 10:31N 30°05' W 093°18'1 1.3
2018-Jun-16 10:01N 30°05' W 093°17'1 2.1
2018-Jun-16 09:30N 30°04' W 093°16'0 0.7
2018-Jun-16 09:00N 30°04' W 093°16'0 0.0
2018-Jun-16 08:30N 30°04' W 093°16'0 0.0
2018-Jun-16 08:00N 30°04' W 093°16'0 0.0
2018-Jun-16 07:30N 30°04' W 093°16'0 0.0
2018-Jun-16 07:00N 30°04' W 093°16'0 0.0
2018-Jun-16 06:30N 30°04' W 093°16'0 0.0
2018-Jun-16 06:01N 30°04' W 093°16'0 0.0
2018-Jun-16 05:31N 30°04' W 093°16'0 0.0
2018-Jun-16 05:00N 30°04' W 093°16'0 0.0
2018-Jun-16 04:30N 30°04' W 093°16'0 0.6
2018-Jun-16 04:00N 30°03' W 093°16'1 1.8
2018-Jun-16 03:30N 30°03' W 093°16'0 0.0
2018-Jun-16 03:01N 30°03' W 093°16'0 0.0
2018-Jun-16 02:30N 30°03' W 093°16'0 0.0
2018-Jun-16 02:00N 30°03' W 093°16'0 0.7
2018-Jun-16 01:29N 30°02' W 093°15'1 2.7
2018-Jun-16 01:00N 30°02' W 093°14'2 3.8
2018-Jun-16 00:30N 29°60' W 093°13'2 3.8
2018-Jun-16 00:00N 29°58' W 093°12'1 2.8
2018-Jun-15 23:30N 29°57' W 093°11'2 4.1
2018-Jun-15 23:01N 29°56' W 093°09'1 1.8
2018-Jun-15 22:30N 29°56' W 093°08'0 0.0
2018-Jun-15 22:00N 29°56' W 093°08'0 0.0
2018-Jun-15 21:31N 29°56' W 093°08'0 0.0
2018-Jun-15 21:00N 29°56' W 093°08'0 0.0
2018-Jun-15 20:31N 29°56' W 093°08'0 0.0
2018-Jun-15 20:01N 29°56' W 093°08'0 0.0
2018-Jun-15 19:30N 29°56' W 093°08'0 0.0
2018-Jun-15 19:00N 29°56' W 093°08'0 0.0
2018-Jun-15 18:31N 29°56' W 093°08'0 0.0
2018-Jun-15 18:01N 29°56' W 093°08'0 0.0
2018-Jun-15 17:30N 29°56' W 093°08'0 0.0
2018-Jun-15 17:01N 29°56' W 093°08'0 0.0
2018-Jun-15 16:31N 29°56' W 093°08'0 0.0
2018-Jun-15 16:00N 29°56' W 093°08'0 0.0
2018-Jun-15 15:30N 29°56' W 093°08'0 0.0
2018-Jun-15 15:01N 29°56' W 093°08'0 0.0
2018-Jun-15 14:30N 29°56' W 093°08'0 0.0
2018-Jun-15 14:00N 29°56' W 093°08'0 0.0
2018-Jun-15 13:30N 29°56' W 093°08'0 0.0
2018-Jun-15 13:00N 29°56' W 093°08'0 0.0
2018-Jun-15 12:30N 29°56' W 093°08'0 0.0
2018-Jun-15 12:01N 29°56' W 093°08'0 0.0
2018-Jun-15 11:30N 29°56' W 093°08'0 0.0
2018-Jun-15 11:00N 29°56' W 093°08'0 0.0
2018-Jun-15 10:31N 29°56' W 093°08'0 0.0
2018-Jun-15 10:01N 29°56' W 093°08'0 0.0
2018-Jun-15 09:21N 29°56' W 093°08'0 0.0
2018-Jun-15 09:01N 29°56' W 093°08'0 0.0
2018-Jun-15 08:21N 29°56' W 093°08'0 0.0
2018-Jun-15 08:00N 29°56' W 093°08'0 0.0
2018-Jun-15 07:30N 29°56' W 093°08'0 0.0
2018-Jun-15 07:00N 29°56' W 093°08'0 0.0
2018-Jun-15 06:30N 29°56' W 093°08'0 0.0
2018-Jun-15 06:00N 29°56' W 093°08'0 0.0
2018-Jun-15 05:30N 29°56' W 093°08'0 0.0
2018-Jun-15 05:01N 29°56' W 093°08'0 0.0
2018-Jun-15 04:30N 29°56' W 093°08'0 0.3
2018-Jun-15 04:01N 29°56' W 093°08'0 0.0
2018-Jun-15 03:30N 29°56' W 093°08'0 0.0
2018-Jun-15 03:01N 29°56' W 093°08'0 0.0
2018-Jun-15 02:30N 29°56' W 093°08'0 0.0
2018-Jun-15 02:01N 29°56' W 093°08'0 0.0
2018-Jun-15 01:30N 29°56' W 093°08'0 0.0
2018-Jun-15 01:00N 29°56' W 093°08'0 0.0
2018-Jun-15 00:31N 29°56' W 093°08'0 0.0
2018-Jun-15 00:00N 29°56' W 093°08'0 0.0
2018-Jun-14 23:30N 29°56' W 093°08'0 0.0
2018-Jun-14 23:00N 29°56' W 093°08'0 0.0
2018-Jun-14 22:30N 29°56' W 093°08'0 0.0
2018-Jun-14 22:00N 29°56' W 093°08'0 0.0
2018-Jun-14 21:30N 29°56' W 093°08'0 0.3
2018-Jun-14 21:00N 29°56' W 093°08'0 0.0
2018-Jun-14 20:29N 29°56' W 093°07'2 5.1
2018-Jun-14 20:01N 29°56' W 093°05'34 5.5
2018-Jun-14 13:45N 29°53' W 092°25'3 5.3
2018-Jun-14 13:17N 29°52' W 092°23'2 5.6
2018-Jun-14 13:00N 29°51' W 092°22'3 6.0
2018-Jun-14 12:30N 29°50' W 092°18'3 5.6
2018-Jun-14 12:01N 29°48' W 092°16'3 6.3
2018-Jun-14 11:30N 29°47' W 092°13'1 2.2
2018-Jun-14 11:01N 29°47' W 092°11'1 1.5
2018-Jun-14 10:30N 29°47' W 092°11'3 6.1
2018-Jun-14 10:00N 29°47' W 092°07'3 6.3
2018-Jun-14 09:30N 29°48' W 092°04'3 6.2
2018-Jun-14 09:00N 29°50' W 092°00'3 5.9
2018-Jun-14 08:30N 29°50' W 091°57'  

Dump ship's entire track history